Ana Sayfa
METAR-TAF:

METAR-TAF

Havaalanları :

Stavropol Şpakovskoye Havalimanı

Stavropol, Rusya

Enlem: 45-20N, Boylam: 042-00E, yükseklik: 453 m

Güncel hava durumu gözlemi

Rapor saat 08:00 UTC de 12 dakika önce yapıldı.
Rüzgar güney/güneydoğudan 4 kt, doğu ve güney arasında değişken
Sıcaklık 5°C
Nem 33%
Basınç 1020 hPa
Görüş mesafesi 10 km veya daha fazla
1500 m altında bulut yok ve kümülonimbus yok

METAR: URMT 200800Z 15002MPS 090V180 CAVOK 05/M10 Q1020 R07/120060 NOSIG RMK QFE725

Saat: 11:12 (08:12 UTC)

Tahmin

Rapor saat 05:00 UTC de 3 saat ve 12 dakika önce yapıldı.
Ayın 20'si saat 06 UTC'den ayın 20'si saat 15 UTC'ye kadar geçerli Tahmin
Rüzgar güney/güneydoğudan 6 kt ve 16 kt'a kadar ani rüzgarlar
Görüş mesafesi 10 km veya daha fazla
2000 ft yükseklikte parçalı bulutlu
Geçici
ayın 20'si saat 06 UTC'den ayın 20'si saat 15 UTC'ye kadar
Rüzgar değişken yönden 2 kt

TAF: URMT 200500Z 2006/2015 15003G08MPS 9999 SCT020 TEMPO 2006/2015 VRB01MPS

4.000'den fazla havaalanı için hava durumu gözlemleri ve tahminleri (METAR ve TAF raporları).

Kullanılabilir istasyonlar harita üzerinde sarı ve kırmızı noktalarla gösterilir.

İstasyonun adını görmek için fareyi noktanın üzerinde gezdirin.

Sonrasında hava gözlem ve tahminlerini görmek için tıklayın.

Haritayı değiştirmek için: yaklaştırmak için siyah artı işaretli yeşil düğmeye ve uzaklaştırmak için de eksi işaretli düğmeye hızla tıklayın; bitişik haritalar için yeşil okları kullanın.


METAR-TAF: